createdAt,value
2022-11-12T00:01:20.829Z,14.32
2022-11-12T00:04:07.946Z,11.18
2022-11-12T00:06:54.022Z,14.15
2022-11-12T00:09:40.257Z,17.00
2022-11-12T00:12:26.293Z,14.13
2022-11-12T00:15:12.734Z,12.10
2022-11-12T00:17:58.738Z,10.90
2022-11-12T00:20:45.339Z,10.10
2022-11-12T00:23:30.996Z,10.82
2022-11-12T00:26:17.065Z,10.55
2022-11-12T00:29:03.222Z,9.98
2022-11-12T00:31:49.186Z,9.00
2022-11-12T00:34:35.577Z,10.10
2022-11-12T00:37:23.288Z,9.48
2022-11-12T00:40:09.491Z,8.50
2022-11-12T00:42:55.690Z,9.20
2022-11-12T00:45:43.486Z,9.13
2022-11-12T00:48:29.412Z,9.52
2022-11-12T00:51:15.620Z,9.25
2022-11-12T00:54:02.193Z,9.25
2022-11-12T00:56:48.235Z,9.85
2022-11-12T00:59:34.295Z,9.38
2022-11-12T01:02:22.265Z,9.13
2022-11-12T01:05:08.842Z,9.77
2022-11-12T01:07:56.164Z,9.98
2022-11-12T01:10:42.084Z,10.43
2022-11-12T01:13:27.782Z,11.38
2022-11-12T01:16:19.977Z,10.85
2022-11-12T01:19:08.505Z,11.00
2022-11-12T01:21:54.522Z,10.25
2022-11-12T01:24:40.203Z,9.52
2022-11-12T01:27:25.665Z,10.00
2022-11-12T01:30:11.926Z,9.88
2022-11-12T01:32:57.677Z,9.93
2022-11-12T01:35:43.136Z,10.23
2022-11-12T01:38:29.275Z,10.25
2022-11-12T01:41:20.000Z,9.75
2022-11-12T01:44:11.316Z,9.82
2022-11-12T01:47:18.278Z,9.30
2022-11-12T01:50:16.779Z,9.93
2022-11-12T01:53:08.679Z,9.07
2022-11-12T01:55:56.435Z,9.65
2022-11-12T01:58:43.744Z,9.77
2022-11-12T02:01:30.090Z,9.50
2022-11-12T02:04:16.524Z,9.35
2022-11-12T02:07:03.764Z,9.10
2022-11-12T02:09:50.316Z,8.70
2022-11-12T02:12:55.594Z,8.02
2022-11-12T02:15:42.241Z,8.48
2022-11-12T02:18:28.333Z,8.75
2022-11-12T02:21:14.058Z,8.70
2022-11-12T02:24:04.641Z,8.80
2022-11-12T02:26:53.773Z,8.25
2022-11-12T02:29:46.468Z,8.23
2022-11-12T02:32:33.401Z,8.77
2022-11-12T02:35:19.331Z,7.43
2022-11-12T02:38:06.409Z,7.07
2022-11-12T02:40:54.073Z,7.40
2022-11-12T02:43:41.132Z,7.75
2022-11-12T02:46:27.309Z,7.63
2022-11-12T02:49:13.126Z,7.53
2022-11-12T02:51:59.038Z,7.53
2022-11-12T02:54:44.713Z,7.57
2022-11-12T02:57:30.892Z,7.60
2022-11-12T03:00:18.345Z,7.03
2022-11-12T03:03:04.298Z,7.07
2022-11-12T03:05:59.357Z,6.50
2022-11-12T03:08:45.285Z,6.75
2022-11-12T03:11:31.272Z,6.75
2022-11-12T03:14:17.265Z,7.13
2022-11-12T03:17:03.705Z,6.93
2022-11-12T03:19:49.902Z,6.90
2022-11-12T03:22:36.374Z,6.72
2022-11-12T03:25:21.961Z,6.55
2022-11-12T03:28:10.774Z,6.18
2022-11-12T03:31:01.037Z,6.78
2022-11-12T03:33:46.813Z,6.88
2022-11-12T03:36:32.847Z,7.05
2022-11-12T03:39:18.575Z,6.28
2022-11-12T03:42:04.972Z,7.28
2022-11-12T03:44:51.010Z,7.00
2022-11-12T03:47:36.749Z,6.55
2022-11-12T03:50:25.504Z,7.05
2022-11-12T03:53:11.626Z,7.55
2022-11-12T03:55:57.283Z,7.63
2022-11-12T03:58:43.183Z,7.10
2022-11-12T04:01:28.999Z,7.20
2022-11-12T04:04:15.051Z,6.70
2022-11-12T04:07:19.573Z,6.95
2022-11-12T04:10:05.800Z,6.63
2022-11-12T04:13:09.905Z,6.28
2022-11-12T04:16:26.518Z,6.63
2022-11-12T04:19:32.273Z,6.78
2022-11-12T04:22:18.300Z,6.78
2022-11-12T04:25:23.074Z,7.00
2022-11-12T04:28:09.127Z,6.90
2022-11-12T04:30:54.825Z,6.35
2022-11-12T04:33:40.610Z,7.10
2022-11-12T04:36:26.396Z,8.07
2022-11-12T04:39:12.384Z,6.85
2022-11-12T04:42:17.314Z,6.78
2022-11-12T04:45:07.909Z,7.30
2022-11-12T04:47:53.521Z,7.50
2022-11-12T04:50:39.797Z,7.45
2022-11-12T04:53:26.778Z,7.78
2022-11-12T04:56:12.515Z,7.57
2022-11-12T04:58:58.344Z,7.20
2022-11-12T05:01:44.129Z,7.65
2022-11-12T05:04:29.788Z,7.43
2022-11-12T05:07:16.721Z,8.05
2022-11-12T05:10:02.526Z,8.98
2022-11-12T05:12:48.297Z,8.30
2022-11-12T05:15:34.381Z,8.45
2022-11-12T05:18:20.535Z,8.60
2022-11-12T05:21:26.184Z,8.30
2022-11-12T05:24:27.760Z,8.63
2022-11-12T05:27:20.975Z,7.90
2022-11-12T05:30:08.007Z,8.10
2022-11-12T05:32:53.711Z,8.98
2022-11-12T05:35:39.833Z,8.40
2022-11-12T05:38:26.343Z,8.15
2022-11-12T05:41:15.970Z,8.00
2022-11-12T05:46:51.115Z,8.07
2022-11-12T05:49:37.226Z,7.45
2022-11-12T05:52:22.806Z,7.53
2022-11-12T05:55:14.690Z,7.40
2022-11-12T05:58:05.148Z,8.23
2022-11-12T06:00:50.969Z,7.80
2022-11-12T06:03:36.822Z,7.32
2022-11-12T06:06:23.344Z,7.93
2022-11-12T06:09:10.154Z,8.00
2022-11-12T06:11:56.093Z,7.60
2022-11-12T06:14:42.301Z,7.00
2022-11-12T06:17:28.247Z,7.93
2022-11-12T06:20:14.120Z,8.13
2022-11-12T06:23:00.033Z,7.47
2022-11-12T06:25:46.997Z,9.45
2022-11-12T06:28:32.754Z,10.13
2022-11-12T06:31:19.334Z,7.97
2022-11-12T06:34:04.849Z,8.10
2022-11-12T06:36:50.646Z,7.45
2022-11-12T06:39:36.580Z,7.68
2022-11-12T06:42:22.340Z,7.57
2022-11-12T06:45:08.763Z,7.68
2022-11-12T06:47:58.437Z,6.95
2022-11-12T06:50:44.895Z,7.57
2022-11-12T06:53:30.793Z,8.25
2022-11-12T06:56:17.114Z,8.13
2022-11-12T06:59:02.893Z,7.90
2022-11-12T07:01:49.284Z,7.40
2022-11-12T07:04:35.104Z,7.88
2022-11-12T07:07:21.192Z,7.60
2022-11-12T07:10:07.459Z,7.38
2022-11-12T07:12:54.594Z,7.30
2022-11-12T07:15:40.398Z,6.95
2022-11-12T07:18:26.965Z,6.90
2022-11-12T07:21:15.776Z,7.25
2022-11-12T07:24:01.833Z,6.60
2022-11-12T07:26:47.937Z,6.25
2022-11-12T07:29:46.998Z,7.57
2022-11-12T07:32:37.290Z,7.18
2022-11-12T07:35:26.396Z,6.20
2022-11-12T07:38:12.285Z,6.95
2022-11-12T07:41:02.813Z,6.88
2022-11-12T07:43:50.689Z,6.95
2022-11-12T07:46:36.745Z,6.85
2022-11-12T07:49:22.586Z,6.88
2022-11-12T07:52:08.168Z,6.50
2022-11-12T07:54:54.280Z,7.20
2022-11-12T07:57:39.941Z,12.27
2022-11-12T08:00:25.735Z,9.60
2022-11-12T08:03:11.681Z,8.68
2022-11-12T08:06:00.752Z,6.95
2022-11-12T08:08:47.394Z,6.60
2022-11-12T08:11:34.120Z,7.47
2022-11-12T08:14:19.808Z,7.07
2022-11-12T08:17:05.579Z,7.00
2022-11-12T08:19:55.345Z,7.53
2022-11-12T08:22:46.377Z,6.95
2022-11-12T08:25:35.354Z,7.47
2022-11-12T08:28:21.230Z,7.35
2022-11-12T08:31:10.254Z,7.18
2022-11-12T08:33:56.137Z,7.22
2022-11-12T08:36:42.024Z,7.50
2022-11-12T08:39:28.168Z,7.85
2022-11-12T08:42:14.240Z,7.30
2022-11-12T08:44:59.943Z,7.75
2022-11-12T08:47:45.815Z,7.45
2022-11-12T08:50:32.208Z,7.35
2022-11-12T08:53:18.284Z,7.70
2022-11-12T08:56:04.426Z,7.35
2022-11-12T08:58:50.807Z,7.00
2022-11-12T09:01:37.130Z,7.63
2022-11-12T09:04:22.911Z,9.88
2022-11-12T09:07:09.609Z,7.88
2022-11-12T09:09:55.716Z,7.80
2022-11-12T09:12:41.609Z,7.93
2022-11-12T09:15:37.829Z,7.18
2022-11-12T09:18:24.747Z,7.38
2022-11-12T09:21:12.618Z,7.80
2022-11-12T09:23:58.546Z,6.80
2022-11-12T09:26:44.240Z,7.43
2022-11-12T09:29:30.409Z,7.28
2022-11-12T09:32:16.359Z,6.53
2022-11-12T09:35:02.374Z,7.53
2022-11-12T09:37:48.728Z,8.48
2022-11-12T09:41:10.183Z,10.60
2022-11-12T09:44:03.813Z,8.98
2022-11-12T09:47:02.657Z,10.15
2022-11-12T09:49:56.789Z,9.38
2022-11-12T09:52:45.058Z,9.50
2022-11-12T09:55:42.197Z,9.55
2022-11-12T09:58:28.529Z,8.57
2022-11-12T10:01:35.006Z,7.93
2022-11-12T10:04:44.493Z,8.55
2022-11-12T10:07:36.684Z,9.95
2022-11-12T10:10:41.324Z,8.48
2022-11-12T10:13:53.394Z,8.18
2022-11-12T10:17:08.834Z,7.15
2022-11-12T10:20:30.231Z,8.05
2022-11-12T10:23:27.068Z,8.13
2022-11-12T10:26:15.625Z,11.23
2022-11-12T10:29:32.929Z,10.82
2022-11-12T10:32:18.594Z,8.40
2022-11-12T10:35:04.845Z,7.90
2022-11-12T10:38:06.623Z,8.45
2022-11-12T10:40:52.291Z,8.73
2022-11-12T10:43:52.766Z,9.23
2022-11-12T10:46:39.073Z,8.77
2022-11-12T10:49:25.549Z,9.50
2022-11-12T10:52:23.021Z,9.02
2022-11-12T10:55:18.860Z,9.02
2022-11-12T10:58:04.729Z,10.45
2022-11-12T11:00:56.522Z,12.27
2022-11-12T11:03:57.226Z,12.82
2022-11-12T11:06:43.546Z,11.77
2022-11-12T11:09:29.476Z,11.23
2022-11-12T11:12:30.675Z,10.18
2022-11-12T11:15:16.100Z,10.40
2022-11-12T11:18:02.319Z,10.60
2022-11-12T11:21:03.371Z,10.18
2022-11-12T11:23:52.591Z,9.95
2022-11-12T11:27:12.128Z,10.85
2022-11-12T11:30:03.593Z,10.18
2022-11-12T11:33:23.322Z,10.60
2022-11-12T11:36:33.632Z,13.55
2022-11-12T11:39:57.964Z,11.35
2022-11-12T11:43:02.301Z,10.90
2022-11-12T11:46:14.107Z,10.32
2022-11-12T11:48:59.883Z,10.40
2022-11-12T11:52:00.323Z,10.25
2022-11-12T11:55:02.270Z,11.38
2022-11-12T11:58:09.689Z,11.13
2022-11-12T12:01:00.389Z,10.40
2022-11-12T12:04:06.973Z,11.23
2022-11-12T12:06:52.868Z,10.65
2022-11-12T12:09:45.223Z,10.63
2022-11-12T12:12:42.740Z,11.98
2022-11-12T12:15:40.454Z,11.13
2022-11-12T12:18:38.605Z,10.95
2022-11-12T12:21:26.541Z,11.32
2022-11-12T12:24:19.394Z,11.13
2022-11-12T12:27:12.657Z,11.70
2022-11-12T12:30:23.595Z,11.20
2022-11-12T12:33:09.419Z,11.25
2022-11-12T12:36:15.864Z,10.68
2022-11-12T12:39:04.731Z,11.75
2022-11-12T12:42:04.305Z,11.65
2022-11-12T12:45:00.721Z,11.10
2022-11-12T12:47:48.457Z,10.57
2022-11-12T12:50:38.705Z,10.77
2022-11-12T12:53:30.307Z,11.70
2022-11-12T12:56:15.784Z,10.77
2022-11-12T12:59:05.893Z,12.18
2022-11-12T13:02:01.252Z,11.60
2022-11-12T13:04:57.504Z,11.70
2022-11-12T13:07:49.002Z,11.65
2022-11-12T13:10:34.787Z,11.18
2022-11-12T13:13:21.015Z,11.77
2022-11-12T13:16:08.086Z,11.27
2022-11-12T13:18:54.111Z,11.23
2022-11-12T13:21:40.223Z,11.57
2022-11-12T13:25:03.651Z,11.80
2022-11-12T13:27:49.503Z,12.38
2022-11-12T13:30:35.448Z,12.20
2022-11-12T13:33:29.857Z,10.32
2022-11-12T13:36:29.319Z,10.95
2022-11-12T13:39:19.540Z,11.15
2022-11-12T13:42:37.076Z,11.40
2022-11-12T13:45:27.332Z,11.98
2022-11-12T13:48:18.079Z,12.35
2022-11-12T13:51:07.685Z,12.35
2022-11-12T13:53:53.493Z,11.82
2022-11-12T13:56:39.474Z,13.25
2022-11-12T13:59:26.536Z,13.55
2022-11-12T14:02:30.503Z,15.05
2022-11-12T14:05:19.219Z,11.90
2022-11-12T14:08:29.991Z,12.95
2022-11-12T14:11:51.212Z,13.27
2022-11-12T14:15:14.624Z,13.05
2022-11-12T14:18:31.326Z,13.52
2022-11-12T14:21:18.692Z,14.30
2022-11-12T14:24:05.289Z,14.23
2022-11-12T14:26:51.261Z,13.40
2022-11-12T14:29:42.469Z,13.13
2022-11-12T14:32:39.945Z,12.70
2022-11-12T14:35:37.830Z,12.65
2022-11-12T14:38:33.024Z,12.15
2022-11-12T14:41:26.001Z,12.80
2022-11-12T14:44:19.431Z,13.85
2022-11-12T14:47:05.308Z,14.88
2022-11-12T14:49:51.370Z,13.98
2022-11-12T14:52:43.174Z,13.90
2022-11-12T14:55:33.454Z,12.93
2022-11-12T14:58:21.509Z,13.80
2022-11-12T15:02:08.530Z,13.15
2022-11-12T15:04:43.976Z,14.07
2022-11-12T15:07:32.948Z,12.77
2022-11-12T15:10:29.948Z,12.93
2022-11-12T15:13:21.190Z,13.18
2022-11-12T15:16:08.703Z,12.45
2022-11-12T15:19:13.658Z,12.38
2022-11-12T15:22:02.383Z,12.02
2022-11-12T15:24:49.721Z,12.90
2022-11-12T15:27:40.438Z,12.63
2022-11-12T15:30:29.351Z,12.77
2022-11-12T15:33:21.182Z,11.95
2022-11-12T15:36:18.011Z,14.05
2022-11-12T15:39:04.924Z,13.75
2022-11-12T15:42:14.621Z,13.55
2022-11-12T15:45:02.555Z,14.85
2022-11-12T15:47:48.730Z,14.68
2022-11-12T15:50:34.639Z,14.32
2022-11-12T15:53:20.674Z,13.85
2022-11-12T15:56:13.192Z,14.70
2022-11-12T15:58:59.488Z,15.85
2022-11-12T16:01:45.569Z,15.00
2022-11-12T16:04:31.719Z,14.25
2022-11-12T16:07:17.697Z,14.55
2022-11-12T16:10:03.497Z,17.45
2022-11-12T16:12:51.379Z,29.65
2022-11-12T16:15:37.307Z,30.80
2022-11-12T16:18:22.997Z,25.98
2022-11-12T16:21:09.953Z,21.15
2022-11-12T16:23:55.821Z,17.58
2022-11-12T16:26:41.612Z,16.77
2022-11-12T16:29:27.404Z,17.83
2022-11-12T16:32:14.532Z,18.27
2022-11-12T16:35:01.534Z,19.13
2022-11-12T16:37:48.209Z,18.95
2022-11-12T16:40:34.227Z,17.55
2022-11-12T16:43:20.236Z,16.92
2022-11-12T16:46:26.324Z,17.10
2022-11-12T16:49:13.453Z,14.88
2022-11-12T16:51:59.311Z,15.05
2022-11-12T16:54:45.284Z,15.85
2022-11-12T16:57:31.298Z,15.80
2022-11-12T17:00:18.204Z,15.20
2022-11-12T17:03:07.361Z,14.38
2022-11-12T17:05:59.385Z,15.18
2022-11-12T17:08:50.064Z,15.15
2022-11-12T17:11:37.583Z,15.13
2022-11-12T17:14:28.575Z,17.38
2022-11-12T17:17:16.830Z,19.25
2022-11-12T17:20:05.728Z,20.45
2022-11-12T17:23:01.627Z,18.63
2022-11-12T17:25:59.997Z,19.58
2022-11-12T17:29:01.141Z,17.98
2022-11-12T17:31:55.048Z,17.48
2022-11-12T17:34:45.964Z,17.65
2022-11-12T17:37:36.988Z,17.83
2022-11-12T17:40:26.323Z,18.55
2022-11-12T17:43:18.441Z,19.42
2022-11-12T17:46:07.963Z,19.75
2022-11-12T17:48:58.867Z,21.83
2022-11-12T17:51:50.521Z,23.25
2022-11-12T17:54:36.890Z,23.05
2022-11-12T17:57:23.089Z,24.30
2022-11-12T18:00:10.349Z,32.80
2022-11-12T18:02:57.572Z,31.58
2022-11-12T18:06:01.787Z,45.58
2022-11-12T18:08:53.695Z,38.75
2022-11-12T18:11:56.719Z,38.97
2022-11-12T18:14:42.920Z,34.65
2022-11-12T18:17:31.642Z,35.53
2022-11-12T18:20:20.536Z,33.95
2022-11-12T18:23:07.387Z,34.15
2022-11-12T18:25:57.122Z,34.38
2022-11-12T18:29:04.088Z,32.28
2022-11-12T18:31:57.224Z,35.08
2022-11-12T18:34:45.367Z,35.30
2022-11-12T18:37:31.446Z,31.33
2022-11-12T18:40:17.971Z,31.52
2022-11-12T18:43:05.166Z,32.28
2022-11-12T18:45:59.113Z,31.98
2022-11-12T18:48:49.528Z,32.70
2022-11-12T18:51:37.036Z,30.05
2022-11-12T18:54:30.703Z,29.33
2022-11-12T18:57:25.634Z,39.65
2022-11-12T19:00:14.378Z,36.92
2022-11-12T19:03:04.017Z,31.00
2022-11-12T19:05:59.028Z,27.38
2022-11-12T19:08:48.698Z,27.67
2022-11-12T19:11:36.930Z,26.88
2022-11-12T19:14:29.671Z,25.83
2022-11-12T19:17:20.033Z,26.08
2022-11-12T19:20:11.369Z,26.02
2022-11-12T19:23:01.396Z,27.13
2022-11-12T19:25:51.353Z,29.05
2022-11-12T19:28:41.266Z,26.50
2022-11-12T19:31:31.067Z,27.30
2022-11-12T19:34:21.788Z,29.17
2022-11-12T19:37:32.261Z,30.80
2022-11-12T19:40:23.998Z,30.75
2022-11-12T19:43:16.597Z,29.77
2022-11-12T19:46:10.405Z,30.55
2022-11-12T19:49:01.745Z,29.35
2022-11-12T19:51:52.125Z,28.30
2022-11-12T19:54:41.217Z,30.70
2022-11-12T19:57:31.703Z,31.33
2022-11-12T20:00:19.648Z,30.85
2022-11-12T20:03:10.409Z,33.17
2022-11-12T20:06:14.945Z,30.70
2022-11-12T20:09:00.870Z,35.63
2022-11-12T20:11:46.780Z,35.55
2022-11-12T20:14:32.587Z,38.35
2022-11-12T20:17:18.432Z,37.47
2022-11-12T20:20:09.421Z,37.65
2022-11-12T20:22:55.510Z,41.78
2022-11-12T20:25:41.393Z,38.30
2022-11-12T20:28:27.334Z,37.40
2022-11-12T20:31:16.066Z,37.47
2022-11-12T20:34:02.134Z,45.85
2022-11-12T20:36:48.180Z,43.58
2022-11-12T20:39:33.858Z,37.65
2022-11-12T20:42:19.675Z,37.22
2022-11-12T20:45:06.239Z,38.15
2022-11-12T20:47:52.328Z,35.38
2022-11-12T20:50:38.062Z,37.10
2022-11-12T20:53:23.825Z,32.67
2022-11-12T20:56:12.806Z,33.25
2022-11-12T20:58:59.674Z,29.90
2022-11-12T21:01:45.765Z,30.48
2022-11-12T21:04:31.555Z,30.33
2022-11-12T21:07:17.332Z,31.25
2022-11-12T21:10:03.954Z,31.58
2022-11-12T21:12:50.272Z,30.58
2022-11-12T21:15:36.092Z,30.52
2022-11-12T21:18:26.898Z,30.65
2022-11-12T21:21:18.446Z,32.97
2022-11-12T21:24:05.426Z,31.92
2022-11-12T21:26:51.575Z,35.80
2022-11-12T21:29:37.556Z,36.15
2022-11-12T21:32:23.486Z,37.17
2022-11-12T21:35:09.656Z,40.65
2022-11-12T21:37:55.723Z,42.60
2022-11-12T21:40:41.698Z,49.80
2022-11-12T21:43:27.935Z,40.95
2022-11-12T21:46:21.098Z,34.60
2022-11-12T21:49:07.103Z,35.35
2022-11-12T21:51:52.941Z,35.30
2022-11-12T21:54:39.941Z,37.88
2022-11-12T21:57:25.814Z,37.63
2022-11-12T22:00:40.356Z,36.00
2022-11-12T22:03:18.438Z,34.70
2022-11-12T22:06:04.773Z,35.85
2022-11-12T22:08:55.427Z,37.38
2022-11-12T22:11:41.262Z,36.47
2022-11-12T22:14:27.702Z,35.97
2022-11-12T22:17:13.526Z,36.25
2022-11-12T22:19:59.257Z,36.22
2022-11-12T22:22:45.324Z,34.85
2022-11-12T22:25:31.272Z,35.63
2022-11-12T22:28:17.383Z,38.38
2022-11-12T22:31:07.921Z,37.63
2022-11-12T22:33:54.716Z,36.00
2022-11-12T22:36:40.588Z,33.75
2022-11-12T22:39:27.294Z,32.40
2022-11-12T22:42:13.443Z,31.75
2022-11-12T22:44:59.361Z,30.75
2022-11-12T22:47:45.351Z,30.75
2022-11-12T22:50:31.158Z,26.77
2022-11-12T22:53:17.159Z,26.38
2022-11-12T22:56:05.387Z,25.38
2022-11-12T22:58:51.480Z,27.38
2022-11-12T23:01:37.367Z,28.02
2022-11-12T23:04:23.559Z,26.13
2022-11-12T23:07:09.655Z,29.60
2022-11-12T23:09:55.715Z,26.50
2022-11-12T23:12:41.468Z,29.27
2022-11-12T23:15:31.334Z,30.58
2022-11-12T23:18:17.156Z,33.83
2022-11-12T23:21:07.809Z,32.42
2022-11-12T23:23:56.051Z,31.70
2022-11-12T23:26:42.047Z,33.63
2022-11-12T23:29:28.115Z,34.50
2022-11-12T23:32:13.826Z,34.92
2022-11-12T23:34:59.765Z,37.05
2022-11-12T23:37:45.947Z,32.97
2022-11-12T23:40:32.138Z,34.88
2022-11-12T23:43:18.349Z,32.47
2022-11-12T23:46:04.690Z,32.63
2022-11-12T23:48:50.832Z,33.92
2022-11-12T23:51:37.122Z,31.52
2022-11-12T23:54:22.984Z,30.00
2022-11-12T23:57:09.279Z,32.28
2022-11-12T23:59:55.235Z,33.58
